createdAt,value
2023-02-01T00:00:35.512Z,1.80
2023-02-01T00:03:02.766Z,2.40
2023-02-01T00:05:29.961Z,2.80
2023-02-01T00:07:57.101Z,2.30
2023-02-01T00:10:24.490Z,3.10
2023-02-01T00:12:51.764Z,2.97
2023-02-01T00:15:19.186Z,2.83
2023-02-01T00:17:46.392Z,2.53
2023-02-01T00:20:13.581Z,2.80
2023-02-01T00:22:40.737Z,2.60
2023-02-01T00:25:08.144Z,2.10
2023-02-01T00:27:35.436Z,2.53
2023-02-01T00:30:02.635Z,3.00
2023-02-01T00:32:29.797Z,2.50
2023-02-01T00:34:57.170Z,2.60
2023-02-01T00:37:24.431Z,2.23
2023-02-01T00:39:51.637Z,2.63
2023-02-01T00:42:18.808Z,2.07
2023-02-01T00:44:46.028Z,3.00
2023-02-01T00:47:13.183Z,2.23
2023-02-01T00:49:40.441Z,2.47
2023-02-01T00:52:07.707Z,2.20
2023-02-01T00:54:35.642Z,3.13
2023-02-01T00:57:02.904Z,1.80
2023-02-01T00:59:30.175Z,2.57
2023-02-01T01:01:57.382Z,2.33
2023-02-01T01:04:24.597Z,2.30
2023-02-01T01:06:51.749Z,2.13
2023-02-01T01:09:18.898Z,2.13
2023-02-01T01:11:46.081Z,2.83
2023-02-01T01:14:13.290Z,2.20
2023-02-01T01:16:40.546Z,1.90
2023-02-01T01:19:07.797Z,2.03
2023-02-01T01:21:34.929Z,2.40
2023-02-01T01:24:02.272Z,1.90
2023-02-01T01:26:30.531Z,2.40
2023-02-01T01:28:58.314Z,1.83
2023-02-01T01:31:26.058Z,2.43
2023-02-01T01:33:54.019Z,2.10
2023-02-01T01:36:21.657Z,2.70
2023-02-01T01:38:48.886Z,2.33
2023-02-01T01:41:17.784Z,2.50
2023-02-01T01:43:49.727Z,1.87
2023-02-01T01:46:27.325Z,2.47
2023-02-01T01:48:59.800Z,1.97
2023-02-01T01:51:27.648Z,1.67
2023-02-01T01:54:18.302Z,2.27
2023-02-01T01:56:47.727Z,2.03
2023-02-01T01:59:14.896Z,1.50
2023-02-01T02:01:42.151Z,2.27
2023-02-01T02:04:09.617Z,2.30
2023-02-01T02:06:40.641Z,1.70
2023-02-01T02:09:08.128Z,2.03
2023-02-01T02:11:35.478Z,2.47
2023-02-01T02:14:03.065Z,2.33
2023-02-01T02:16:30.323Z,2.00
2023-02-01T02:19:16.266Z,2.10
2023-02-01T02:21:52.486Z,2.57
2023-02-01T02:24:38.155Z,2.60
2023-02-01T02:27:25.752Z,1.73
2023-02-01T02:30:03.886Z,2.10
2023-02-01T02:32:34.139Z,2.67
2023-02-01T02:35:11.192Z,2.37
2023-02-01T02:37:41.509Z,2.20
2023-02-01T02:40:09.956Z,2.27
2023-02-01T02:42:58.557Z,2.80
2023-02-01T02:45:44.313Z,2.73
2023-02-01T02:48:20.053Z,2.43
2023-02-01T02:51:14.888Z,2.33
2023-02-01T02:54:08.805Z,2.70
2023-02-01T02:56:55.625Z,2.67
2023-02-01T02:59:43.007Z,2.63
2023-02-01T03:02:29.096Z,2.37
2023-02-01T03:04:59.251Z,2.43
2023-02-01T03:07:45.500Z,2.33
2023-02-01T03:10:19.044Z,2.63
2023-02-01T03:12:58.365Z,2.37
2023-02-01T03:15:28.679Z,2.97
2023-02-01T03:17:57.185Z,2.40
2023-02-01T03:20:25.999Z,2.83
2023-02-01T03:22:54.681Z,3.60
2023-02-01T03:25:27.173Z,2.53
2023-02-01T03:27:56.716Z,2.47
2023-02-01T03:30:29.584Z,2.67
2023-02-01T03:33:01.553Z,2.60
2023-02-01T03:35:37.521Z,2.33
2023-02-01T03:38:31.063Z,2.20
2023-02-01T03:41:02.422Z,3.00
2023-02-01T03:43:31.335Z,2.43
2023-02-01T03:46:01.936Z,3.30
2023-02-01T03:48:30.815Z,2.17
2023-02-01T03:51:00.171Z,2.83
2023-02-01T03:53:28.108Z,2.27
2023-02-01T03:55:55.621Z,2.60
2023-02-01T03:58:24.079Z,1.97
2023-02-01T04:00:58.918Z,2.37
2023-02-01T04:03:27.003Z,2.63
2023-02-01T04:05:54.623Z,2.57
2023-02-01T04:08:22.399Z,2.50
2023-02-01T04:10:49.592Z,2.90
2023-02-01T04:13:16.907Z,1.87
2023-02-01T04:15:44.185Z,2.13
2023-02-01T04:18:11.331Z,2.93
2023-02-01T04:20:38.475Z,2.00
2023-02-01T04:23:05.687Z,2.10
2023-02-01T04:25:32.927Z,2.43
2023-02-01T04:28:00.393Z,2.10
2023-02-01T04:30:27.575Z,1.63
2023-02-01T04:32:54.796Z,2.10
2023-02-01T04:35:23.149Z,2.17
2023-02-01T04:37:50.352Z,1.60
2023-02-01T04:40:17.566Z,2.30
2023-02-01T04:42:44.883Z,2.17
2023-02-01T04:45:12.225Z,2.33
2023-02-01T04:47:39.435Z,2.07
2023-02-01T04:50:06.976Z,1.47
2023-02-01T04:52:34.164Z,2.67
2023-02-01T04:55:03.073Z,1.93
2023-02-01T04:57:30.267Z,2.50
2023-02-01T04:59:57.391Z,2.43
2023-02-01T05:02:24.660Z,2.03
2023-02-01T05:04:52.007Z,2.00
2023-02-01T05:07:19.210Z,2.63
2023-02-01T05:09:46.356Z,1.90
2023-02-01T05:12:33.045Z,2.80
2023-02-01T05:15:00.198Z,1.80
2023-02-01T05:17:27.415Z,2.70
2023-02-01T05:19:54.666Z,2.20
2023-02-01T05:22:21.832Z,2.57
2023-02-01T05:24:48.986Z,2.80
2023-02-01T05:27:16.133Z,2.43
2023-02-01T05:29:43.361Z,3.10
2023-02-01T05:32:21.780Z,2.67
2023-02-01T05:34:49.966Z,2.57
2023-02-01T05:37:17.130Z,3.07
2023-02-01T05:39:44.341Z,2.47
2023-02-01T05:42:11.688Z,3.50
2023-02-01T05:44:39.135Z,4.47
2023-02-01T05:47:06.342Z,2.67
2023-02-01T05:49:33.650Z,2.20
2023-02-01T05:52:00.931Z,2.60
2023-02-01T05:54:28.507Z,3.07
2023-02-01T05:56:55.811Z,2.90
2023-02-01T05:59:23.030Z,3.77
2023-02-01T06:01:50.259Z,2.67
2023-02-01T06:04:17.412Z,3.80
2023-02-01T06:06:44.576Z,3.30
2023-02-01T06:09:11.782Z,2.87
2023-02-01T06:11:38.929Z,3.27
2023-02-01T06:14:08.871Z,2.67
2023-02-01T06:16:36.092Z,3.20
2023-02-01T06:19:03.280Z,2.30
2023-02-01T06:21:30.463Z,2.30
2023-02-01T06:23:58.764Z,2.73
2023-02-01T06:26:26.318Z,3.13
2023-02-01T06:28:54.019Z,2.63
2023-02-01T06:31:21.321Z,2.60
2023-02-01T06:33:49.852Z,2.43
2023-02-01T06:36:18.386Z,3.67
2023-02-01T06:38:45.639Z,2.93
2023-02-01T06:41:12.893Z,3.23
2023-02-01T06:43:40.404Z,3.00
2023-02-01T06:46:13.298Z,3.40
2023-02-01T06:48:40.900Z,2.97
2023-02-01T06:51:08.266Z,3.00
2023-02-01T06:53:36.010Z,3.27
2023-02-01T06:56:04.070Z,3.57
2023-02-01T06:58:35.283Z,3.47
2023-02-01T07:01:10.237Z,3.53
2023-02-01T07:03:37.448Z,2.83
2023-02-01T07:06:05.523Z,3.10
2023-02-01T07:08:33.365Z,3.10
2023-02-01T07:11:07.695Z,3.37
2023-02-01T07:13:35.339Z,3.80
2023-02-01T07:16:06.537Z,3.33
2023-02-01T07:18:33.784Z,3.03
2023-02-01T07:21:01.301Z,3.07
2023-02-01T07:23:29.068Z,3.67
2023-02-01T07:25:57.111Z,3.67
2023-02-01T07:28:24.501Z,3.77
2023-02-01T07:30:52.072Z,3.37
2023-02-01T07:33:20.476Z,3.37
2023-02-01T07:35:48.025Z,3.63
2023-02-01T07:38:15.524Z,3.70
2023-02-01T07:40:43.097Z,3.60
2023-02-01T07:43:10.577Z,4.10
2023-02-01T07:45:38.187Z,3.33
2023-02-01T07:48:05.672Z,4.30
2023-02-01T07:50:33.113Z,4.10
2023-02-01T07:53:01.822Z,4.67
2023-02-01T07:55:29.422Z,4.67
2023-02-01T07:57:59.001Z,3.83
2023-02-01T08:00:45.407Z,4.10
2023-02-01T08:03:12.665Z,3.97
2023-02-01T08:05:39.906Z,3.30
2023-02-01T08:08:07.879Z,4.30
2023-02-01T08:10:36.190Z,3.97
2023-02-01T08:13:04.349Z,3.97
2023-02-01T08:15:32.023Z,3.93
2023-02-01T08:17:59.580Z,3.80
2023-02-01T08:20:29.887Z,3.47
2023-02-01T08:22:57.055Z,3.70
2023-02-01T08:25:24.786Z,3.63
2023-02-01T08:27:52.391Z,3.97
2023-02-01T08:30:19.633Z,3.73
2023-02-01T08:32:46.799Z,5.13
2023-02-01T08:35:13.982Z,4.50
2023-02-01T08:37:41.239Z,3.57
2023-02-01T08:40:08.916Z,3.83
2023-02-01T08:42:55.022Z,3.80
2023-02-01T08:45:24.867Z,3.93
2023-02-01T08:47:55.409Z,3.80
2023-02-01T08:50:23.350Z,6.03
2023-02-01T08:52:50.952Z,3.53
2023-02-01T08:55:18.351Z,4.40
2023-02-01T08:57:45.886Z,3.60
2023-02-01T09:00:14.610Z,3.93
2023-02-01T09:02:41.864Z,3.90
2023-02-01T09:05:09.352Z,3.00
2023-02-01T09:07:36.771Z,3.30
2023-02-01T09:10:05.069Z,3.07
2023-02-01T09:12:33.120Z,2.80
2023-02-01T09:15:00.894Z,2.13
2023-02-01T09:19:56.986Z,3.70
2023-02-01T09:22:24.153Z,3.10
2023-02-01T09:24:51.810Z,3.13
2023-02-01T09:27:20.256Z,2.53
2023-02-01T09:29:53.217Z,3.87
2023-02-01T09:32:21.549Z,3.70
2023-02-01T09:34:48.876Z,3.13
2023-02-01T09:37:16.276Z,3.10
2023-02-01T09:39:46.616Z,2.97
2023-02-01T09:42:32.620Z,3.40
2023-02-01T09:45:09.375Z,3.60
2023-02-01T09:47:37.101Z,4.20
2023-02-01T09:50:10.160Z,3.80
2023-02-01T09:52:49.468Z,4.27
2023-02-01T09:55:28.775Z,4.13
2023-02-01T09:57:59.723Z,3.30
2023-02-01T10:00:29.269Z,3.70
2023-02-01T10:02:57.277Z,4.13
2023-02-01T10:05:47.727Z,4.20
2023-02-01T10:08:14.892Z,3.30
2023-02-01T10:10:51.430Z,4.27
2023-02-01T10:13:41.406Z,3.60
2023-02-01T10:16:11.784Z,3.70
2023-02-01T10:18:46.577Z,4.77
2023-02-01T10:21:16.959Z,3.90
2023-02-01T10:23:58.916Z,5.47
2023-02-01T10:26:33.908Z,4.80
2023-02-01T10:29:02.871Z,4.57
2023-02-01T10:31:36.354Z,5.10
2023-02-01T10:34:13.702Z,4.50
2023-02-01T10:36:51.111Z,4.97
2023-02-01T10:39:18.392Z,4.00
2023-02-01T10:41:45.544Z,4.83
2023-02-01T10:44:21.448Z,4.20
2023-02-01T10:46:48.609Z,5.00
2023-02-01T10:49:19.267Z,4.33
2023-02-01T10:51:53.772Z,4.07
2023-02-01T10:54:22.204Z,4.37
2023-02-01T10:56:50.191Z,4.40
2023-02-01T10:59:19.077Z,4.27
2023-02-01T11:01:48.122Z,3.80
2023-02-01T11:04:17.697Z,3.63
2023-02-01T11:07:08.684Z,3.30
2023-02-01T11:09:40.731Z,3.40
2023-02-01T11:12:22.195Z,3.33
2023-02-01T11:14:49.391Z,3.53
2023-02-01T11:17:18.750Z,3.20
2023-02-01T11:19:47.058Z,3.87
2023-02-01T11:22:15.456Z,4.03
2023-02-01T11:24:46.535Z,3.47
2023-02-01T11:27:27.241Z,3.90
2023-02-01T11:29:57.470Z,3.87
2023-02-01T11:32:25.225Z,4.73
2023-02-01T11:35:01.243Z,4.80
2023-02-01T11:37:31.554Z,4.87
2023-02-01T11:40:03.088Z,4.63
2023-02-01T11:42:30.931Z,4.40
2023-02-01T11:45:17.016Z,4.23
2023-02-01T11:47:44.204Z,3.90
2023-02-01T11:50:17.461Z,3.70
2023-02-01T11:53:07.189Z,4.23
2023-02-01T11:55:37.431Z,3.90
2023-02-01T11:58:17.070Z,3.70
2023-02-01T12:00:50.222Z,3.13
2023-02-01T12:03:36.020Z,3.13
2023-02-01T12:06:22.011Z,3.00
2023-02-01T12:08:49.295Z,2.20
2023-02-01T12:11:37.583Z,2.30
2023-02-01T12:14:07.567Z,2.93
2023-02-01T12:16:42.152Z,2.53
2023-02-01T12:19:27.730Z,2.47
2023-02-01T12:21:54.849Z,2.23
2023-02-01T12:24:31.458Z,2.37
2023-02-01T12:27:04.756Z,2.40
2023-02-01T12:29:50.018Z,2.07
2023-02-01T12:32:23.430Z,1.80
2023-02-01T12:34:59.740Z,2.70
2023-02-01T12:37:47.402Z,2.10
2023-02-01T12:40:17.327Z,2.10
2023-02-01T12:42:54.639Z,2.33
2023-02-01T12:45:30.594Z,2.70
2023-02-01T12:47:59.775Z,2.17
2023-02-01T12:50:37.600Z,2.23
2023-02-01T12:53:21.683Z,2.33
2023-02-01T12:55:51.834Z,2.17
2023-02-01T12:58:24.643Z,2.67
2023-02-01T13:00:56.906Z,1.93
2023-02-01T13:03:24.068Z,2.37
2023-02-01T13:06:03.808Z,2.10
2023-02-01T13:08:51.215Z,2.13
2023-02-01T13:11:28.163Z,2.00
2023-02-01T13:14:02.754Z,1.90
2023-02-01T13:16:32.496Z,1.73
2023-02-01T13:19:19.202Z,1.73
2023-02-01T13:21:52.038Z,1.87
2023-02-01T13:24:29.474Z,1.73
2023-02-01T13:26:56.848Z,1.87
2023-02-01T13:29:25.841Z,1.80
2023-02-01T13:32:06.207Z,2.77
2023-02-01T13:34:39.233Z,3.57
2023-02-01T13:37:12.265Z,3.00
2023-02-01T13:39:39.398Z,3.80
2023-02-01T13:42:18.522Z,3.53
2023-02-01T13:44:48.186Z,2.73
2023-02-01T13:47:27.703Z,1.70
2023-02-01T13:49:56.230Z,2.20
2023-02-01T13:52:26.166Z,2.67
2023-02-01T13:55:03.551Z,2.90
2023-02-01T13:57:37.300Z,2.73
2023-02-01T14:00:10.735Z,4.03
2023-02-01T14:02:44.058Z,3.27
2023-02-01T14:05:37.440Z,2.47
2023-02-01T14:08:07.954Z,4.20
2023-02-01T14:10:48.828Z,3.60
2023-02-01T14:13:28.437Z,2.37
2023-02-01T14:16:15.925Z,2.50
2023-02-01T14:18:45.353Z,2.23
2023-02-01T14:21:23.450Z,2.20
2023-02-01T14:24:00.199Z,2.30
2023-02-01T14:26:27.405Z,2.37
2023-02-01T14:28:56.556Z,2.97
2023-02-01T14:31:26.603Z,2.50
2023-02-01T14:33:57.489Z,2.63
2023-02-01T14:36:25.576Z,2.10
2023-02-01T14:38:53.134Z,2.00
2023-02-01T14:41:28.868Z,2.00
2023-02-01T14:44:05.413Z,2.00
2023-02-01T14:46:51.672Z,1.83
2023-02-01T14:49:18.898Z,1.80
2023-02-01T14:51:46.476Z,2.23
2023-02-01T14:54:15.316Z,2.30
2023-02-01T14:56:42.704Z,2.00
2023-02-01T14:59:16.577Z,2.20
2023-02-01T15:01:51.544Z,2.40
2023-02-01T15:04:22.542Z,2.20
2023-02-01T15:06:55.923Z,2.97
2023-02-01T15:09:45.355Z,1.97
2023-02-01T15:12:12.493Z,2.20
2023-02-01T15:14:41.336Z,3.10
2023-02-01T15:17:20.708Z,3.33
2023-02-01T15:19:54.876Z,2.87
2023-02-01T15:22:22.468Z,3.33
2023-02-01T15:24:57.153Z,4.10
2023-02-01T15:27:24.868Z,4.00
2023-02-01T15:29:52.006Z,3.17
2023-02-01T15:32:33.067Z,3.20
2023-02-01T15:35:01.148Z,2.30
2023-02-01T15:37:29.427Z,2.20
2023-02-01T15:40:12.022Z,1.90
2023-02-01T15:42:55.548Z,1.90
2023-02-01T15:45:24.685Z,2.10
2023-02-01T15:47:53.501Z,1.97
2023-02-01T15:50:23.336Z,2.30
2023-02-01T15:52:53.119Z,2.40
2023-02-01T15:55:23.550Z,2.00
2023-02-01T15:57:51.405Z,2.07
2023-02-01T16:00:30.512Z,2.23
2023-02-01T16:02:59.062Z,2.43
2023-02-01T16:05:34.874Z,2.30
2023-02-01T16:08:05.078Z,2.57
2023-02-01T16:10:32.812Z,2.57
2023-02-01T16:13:01.337Z,3.33
2023-02-01T16:15:30.853Z,2.83
2023-02-01T16:17:58.055Z,2.50
2023-02-01T16:20:25.312Z,4.50
2023-02-01T16:22:53.161Z,3.60
2023-02-01T16:25:20.612Z,4.37
2023-02-01T16:27:47.812Z,4.03
2023-02-01T16:30:15.117Z,5.00
2023-02-01T16:32:42.490Z,5.00
2023-02-01T16:35:28.148Z,4.97
2023-02-01T16:37:55.608Z,5.40
2023-02-01T16:40:23.073Z,7.07
2023-02-01T16:42:51.766Z,4.97
2023-02-01T16:45:19.216Z,7.27
2023-02-01T16:47:49.347Z,6.83
2023-02-01T16:50:23.405Z,5.43
2023-02-01T16:52:51.200Z,10.37
2023-02-01T16:55:23.050Z,5.07
2023-02-01T16:57:50.550Z,4.27
2023-02-01T17:00:24.611Z,4.10
2023-02-01T17:02:52.741Z,4.40
2023-02-01T17:05:20.019Z,4.27
2023-02-01T17:07:47.465Z,4.53
2023-02-01T17:10:35.587Z,4.80
2023-02-01T17:13:03.322Z,5.93
2023-02-01T17:15:35.110Z,6.60
2023-02-01T17:18:02.888Z,4.87
2023-02-01T17:20:33.061Z,4.03
2023-02-01T17:23:00.497Z,4.60
2023-02-01T17:25:29.267Z,5.07
2023-02-01T17:27:56.937Z,4.60
2023-02-01T17:30:24.088Z,6.00
2023-02-01T17:32:51.497Z,6.63
2023-02-01T17:35:24.230Z,4.93
2023-02-01T17:37:52.005Z,4.53
2023-02-01T17:40:19.368Z,4.63
2023-02-01T17:42:46.983Z,4.60
2023-02-01T17:45:22.894Z,4.83
2023-02-01T17:47:50.350Z,4.90
2023-02-01T17:50:17.785Z,5.10
2023-02-01T17:52:45.585Z,4.13
2023-02-01T17:55:22.543Z,13.50
2023-02-01T17:57:50.611Z,5.87
2023-02-01T18:00:19.127Z,4.40
2023-02-01T18:02:46.522Z,5.83
2023-02-01T18:05:16.575Z,3.60
2023-02-01T18:07:43.784Z,3.17
2023-02-01T18:10:12.139Z,3.60
2023-02-01T18:12:41.960Z,3.27
2023-02-01T18:15:15.196Z,3.43
2023-02-01T18:17:42.376Z,3.60
2023-02-01T18:20:15.910Z,4.27
2023-02-01T18:22:43.390Z,5.13
2023-02-01T18:25:38.254Z,3.97
2023-02-01T18:28:05.592Z,4.57
2023-02-01T18:30:34.196Z,3.90
2023-02-01T18:33:01.450Z,5.80
2023-02-01T18:35:29.724Z,7.13
2023-02-01T18:37:57.500Z,4.93
2023-02-01T18:40:26.038Z,3.30
2023-02-01T18:42:53.250Z,4.83
2023-02-01T18:45:20.410Z,5.30
2023-02-01T18:47:47.974Z,8.23
2023-02-01T18:50:15.317Z,8.93
2023-02-01T18:52:42.543Z,8.80
2023-02-01T18:55:09.981Z,7.00
2023-02-01T18:57:37.815Z,6.90
2023-02-01T19:00:06.701Z,5.93
2023-02-01T19:02:33.934Z,5.50
2023-02-01T19:05:01.161Z,5.37
2023-02-01T19:07:28.693Z,5.03
2023-02-01T19:09:55.944Z,4.53
2023-02-01T19:12:23.121Z,4.63
2023-02-01T19:14:50.281Z,4.47
2023-02-01T19:17:17.492Z,4.80
2023-02-01T19:19:45.853Z,4.40
2023-02-01T19:22:13.402Z,4.90
2023-02-01T19:24:40.761Z,5.73
2023-02-01T19:27:09.800Z,6.57
2023-02-01T19:29:42.236Z,5.80
2023-02-01T19:32:09.574Z,6.47
2023-02-01T19:34:36.798Z,5.97
2023-02-01T19:37:04.007Z,6.30
2023-02-01T19:39:31.421Z,5.10
2023-02-01T19:41:59.945Z,5.40
2023-02-01T19:44:32.485Z,5.43
2023-02-01T19:46:59.671Z,4.93
2023-02-01T19:49:27.419Z,4.20
2023-02-01T19:51:54.675Z,4.70
2023-02-01T19:54:22.072Z,4.63
2023-02-01T19:56:51.071Z,2.73
2023-02-01T19:59:19.594Z,3.43
2023-02-01T20:01:46.764Z,3.03
2023-02-01T20:04:14.967Z,2.93
2023-02-01T20:06:48.763Z,3.67
2023-02-01T20:09:19.684Z,3.50
2023-02-01T20:11:47.573Z,3.37
2023-02-01T20:14:15.067Z,3.47
2023-02-01T20:16:42.690Z,3.27
2023-02-01T20:19:10.820Z,3.20
2023-02-01T20:21:38.922Z,3.57
2023-02-01T20:24:06.706Z,3.20
2023-02-01T20:26:37.471Z,3.20
2023-02-01T20:29:05.040Z,3.83
2023-02-01T20:31:32.841Z,3.60
2023-02-01T20:34:01.135Z,4.30
2023-02-01T20:36:29.416Z,3.43
2023-02-01T20:38:57.690Z,3.73
2023-02-01T20:41:25.812Z,3.93
2023-02-01T20:43:53.694Z,3.33
2023-02-01T20:46:21.562Z,3.63
2023-02-01T20:48:50.560Z,3.53
2023-02-01T20:51:20.052Z,2.97
2023-02-01T20:53:55.113Z,3.30
2023-02-01T20:56:22.599Z,3.43
2023-02-01T20:58:50.060Z,3.50
2023-02-01T21:01:17.594Z,3.47
2023-02-01T21:03:45.061Z,3.50
2023-02-01T21:06:13.472Z,3.03
2023-02-01T21:08:41.637Z,2.50
2023-02-01T21:11:10.421Z,2.20
2023-02-01T21:13:43.021Z,2.80
2023-02-01T21:16:11.955Z,2.50
2023-02-01T21:18:39.672Z,2.60
2023-02-01T21:21:11.318Z,2.47
2023-02-01T21:23:44.951Z,2.57
2023-02-01T21:26:22.173Z,2.63
2023-02-01T21:28:50.592Z,2.20
2023-02-01T21:31:18.338Z,2.30
2023-02-01T21:33:46.983Z,1.90
2023-02-01T21:36:19.070Z,1.63
2023-02-01T21:38:47.360Z,2.40
2023-02-01T21:41:33.578Z,2.33
2023-02-01T21:44:01.199Z,2.30
2023-02-01T21:46:29.367Z,2.50
2023-02-01T21:49:04.628Z,2.67
2023-02-01T21:51:35.409Z,2.23
2023-02-01T21:54:02.974Z,2.40
2023-02-01T21:56:30.278Z,2.13
2023-02-01T21:58:57.771Z,1.97
2023-02-01T22:01:26.186Z,2.20
2023-02-01T22:03:53.609Z,1.80
2023-02-01T22:06:31.328Z,2.67
2023-02-01T22:08:58.615Z,2.00
2023-02-01T22:11:26.020Z,2.43
2023-02-01T22:13:53.287Z,2.57
2023-02-01T22:16:21.646Z,2.40
2023-02-01T22:18:49.581Z,2.33
2023-02-01T22:21:16.854Z,2.90
2023-02-01T22:23:44.060Z,2.57
2023-02-01T22:26:13.363Z,2.13
2023-02-01T22:28:41.485Z,2.47
2023-02-01T22:31:09.829Z,2.73
2023-02-01T22:33:37.104Z,2.47
2023-02-01T22:36:05.094Z,2.20
2023-02-01T22:38:36.458Z,2.87
2023-02-01T22:41:06.380Z,2.40
2023-02-01T22:43:34.383Z,3.03
2023-02-01T22:46:02.283Z,3.17
2023-02-01T22:48:30.322Z,2.63
2023-02-01T22:50:58.580Z,2.30
2023-02-01T22:53:26.038Z,2.70
2023-02-01T22:55:53.313Z,2.90
2023-02-01T22:58:20.729Z,2.80
2023-02-01T23:00:47.890Z,2.63
2023-02-01T23:03:15.091Z,2.03
2023-02-01T23:05:42.421Z,2.93
2023-02-01T23:08:09.579Z,3.47
2023-02-01T23:10:37.416Z,2.13
2023-02-01T23:13:05.100Z,3.23
2023-02-01T23:15:32.379Z,2.77
2023-02-01T23:17:59.593Z,2.40
2023-02-01T23:20:26.893Z,2.30
2023-02-01T23:22:54.078Z,2.67
2023-02-01T23:25:21.309Z,2.97
2023-02-01T23:27:49.355Z,3.00
2023-02-01T23:30:17.209Z,3.77
2023-02-01T23:32:44.523Z,3.17
2023-02-01T23:35:11.737Z,3.57
2023-02-01T23:37:40.822Z,2.67
2023-02-01T23:40:08.180Z,2.93
2023-02-01T23:42:35.604Z,2.80
2023-02-01T23:45:03.121Z,3.43
2023-02-01T23:47:30.557Z,3.13
2023-02-01T23:49:57.813Z,3.07
2023-02-01T23:52:25.077Z,2.70
2023-02-01T23:54:52.221Z,2.60
2023-02-01T23:57:19.398Z,2.37
2023-02-01T23:59:46.637Z,2.70
